createdAt,value
2018-09-01T00:00:08.915Z,47.77
2018-09-01T00:01:08.949Z,47.77
2018-09-01T00:02:08.942Z,47.67
2018-09-01T00:03:09.259Z,47.67
2018-09-01T00:04:09.041Z,47.67
2018-09-01T00:05:09.031Z,47.57
2018-09-01T00:06:09.109Z,47.67
2018-09-01T00:07:09.089Z,47.77
2018-09-01T00:08:09.176Z,47.77
2018-09-01T00:09:09.158Z,47.77
2018-09-01T00:10:09.492Z,47.67
2018-09-01T00:11:09.293Z,47.47
2018-09-01T00:12:09.281Z,47.67
2018-09-01T00:13:09.283Z,47.77
2018-09-01T00:14:09.371Z,47.86
2018-09-01T00:15:09.355Z,48.06
2018-09-01T00:16:09.435Z,48.06
2018-09-01T00:17:09.725Z,47.77
2018-09-01T00:18:09.453Z,47.77
2018-09-01T00:19:09.536Z,48.15
2018-09-01T00:20:09.516Z,48.06
2018-09-01T00:21:09.550Z,48.25
2018-09-01T00:22:09.585Z,48.35
2018-09-01T00:23:09.613Z,48.15
2018-09-01T00:24:09.998Z,48.15
2018-09-01T00:25:09.729Z,48.15
2018-09-01T00:26:09.717Z,48.06
2018-09-01T00:27:09.740Z,48.06
2018-09-01T00:28:09.780Z,48.15
2018-09-01T00:29:09.859Z,48.06
2018-09-01T00:30:09.841Z,48.13
2018-09-01T00:31:10.169Z,48.15
2018-09-01T00:32:09.951Z,48.06
2018-09-01T00:33:09.985Z,48.06
2018-09-01T00:34:09.969Z,48.15
2018-09-01T00:35:10.009Z,48.06
2018-09-01T00:36:10.087Z,48.15
2018-09-01T00:37:10.068Z,48.15
2018-09-01T00:38:10.403Z,47.96
2018-09-01T00:39:10.128Z,47.94
2018-09-01T00:40:10.210Z,47.67
2018-09-01T00:41:10.193Z,48.06
2018-09-01T00:42:10.229Z,47.96
2018-09-01T00:43:10.316Z,47.77
2018-09-01T00:44:10.382Z,47.77
2018-09-01T00:45:10.627Z,47.84
2018-09-01T00:46:10.356Z,47.74
2018-09-01T00:47:10.392Z,47.74
2018-09-01T00:48:10.425Z,47.77
2018-09-01T00:49:10.452Z,47.86
2018-09-01T00:50:10.540Z,47.86
2018-09-01T00:51:10.516Z,47.86
2018-09-01T00:52:10.855Z,47.96
2018-09-01T00:53:10.634Z,47.84
2018-09-01T00:54:10.617Z,47.94
2018-09-01T00:55:10.698Z,47.84
2018-09-01T00:56:10.728Z,47.84
2018-09-01T00:57:10.715Z,47.94
2018-09-01T00:58:10.844Z,47.94
2018-09-01T00:59:11.083Z,47.94
2018-09-01T01:00:10.859Z,47.84
2018-09-01T01:01:10.898Z,47.74
2018-09-01T01:02:10.878Z,47.74
2018-09-01T01:03:10.911Z,47.84
2018-09-01T01:04:10.947Z,47.94
2018-09-01T01:05:11.021Z,47.94
2018-09-01T01:06:11.306Z,47.94
2018-09-01T01:07:11.084Z,48.22
2018-09-01T01:08:11.133Z,47.74
2018-09-01T01:09:11.170Z,48.22
2018-09-01T01:10:11.136Z,48.22
2018-09-01T01:11:11.218Z,48.32
2018-09-01T01:12:11.201Z,48.32
2018-09-01T01:13:11.535Z,48.42
2018-09-01T01:14:11.289Z,48.22
2018-09-01T01:15:11.347Z,48.22
2018-09-01T01:16:11.387Z,48.22
2018-09-01T01:17:11.417Z,48.13
2018-09-01T01:18:11.399Z,48.13
2018-09-01T01:19:11.428Z,48.13
2018-09-01T01:20:11.460Z,48.13
2018-09-01T01:21:11.542Z,48.22
2018-09-01T01:22:11.517Z,48.32
2018-09-01T01:23:11.562Z,48.22
2018-09-01T01:24:11.638Z,48.22
2018-09-01T01:25:11.626Z,48.22
2018-09-01T01:26:12.003Z,48.32
2018-09-01T01:27:11.729Z,48.22
2018-09-01T01:28:11.766Z,48.32
2018-09-01T01:29:11.752Z,48.32
2018-09-01T01:30:11.777Z,48.32
2018-09-01T01:31:11.858Z,48.42
2018-09-01T01:32:12.144Z,48.81
2018-09-01T01:33:11.883Z,48.32
2018-09-01T01:34:11.909Z,48.42
2018-09-01T01:35:11.943Z,48.81
2018-09-01T01:36:12.025Z,48.81
2018-09-01T01:37:12.057Z,48.90
2018-09-01T01:38:12.339Z,48.90
2018-09-01T01:39:12.120Z,48.81
2018-09-01T01:40:12.154Z,48.52
2018-09-01T01:42:12.164Z,48.52
2018-09-01T01:43:12.195Z,48.61
2018-09-01T01:44:12.537Z,48.71
2018-09-01T01:45:12.263Z,48.61
2018-09-01T01:46:12.304Z,48.61
2018-09-01T01:47:12.383Z,48.61
2018-09-01T01:48:12.410Z,48.61
2018-09-01T01:49:12.402Z,48.71
2018-09-01T01:50:12.425Z,48.71
2018-09-01T01:51:12.754Z,48.71
2018-09-01T01:52:12.539Z,48.61
2018-09-01T01:53:12.567Z,48.61
2018-09-01T01:54:12.560Z,48.32
2018-09-01T01:55:12.588Z,48.61
2018-09-01T01:56:12.664Z,48.52
2018-09-01T01:57:12.699Z,48.61
2018-09-01T01:58:12.982Z,48.52
2018-09-01T01:59:12.715Z,48.42
2018-09-01T02:00:12.798Z,48.52
2018-09-01T02:01:12.775Z,48.52
2018-09-01T02:02:12.857Z,48.52
2018-09-01T02:03:12.891Z,48.42
2018-09-01T02:04:12.920Z,48.32
2018-09-01T02:05:12.914Z,48.32
2018-09-01T02:06:12.940Z,48.32
2018-09-01T02:08:13.049Z,48.81
2018-09-01T02:09:13.086Z,48.81
2018-09-01T02:10:13.113Z,48.81
2018-09-01T02:11:13.404Z,48.81
2018-09-01T02:13:13.215Z,49.00
2018-09-01T02:14:13.193Z,49.00
2018-09-01T02:15:13.231Z,48.81
2018-09-01T02:16:13.314Z,48.81
2018-09-01T02:17:13.289Z,48.71
2018-09-01T02:18:13.621Z,48.81
2018-09-01T02:19:13.356Z,48.90
2018-09-01T02:20:13.386Z,48.90
2018-09-01T02:21:13.423Z,48.71
2018-09-01T02:22:13.499Z,48.71
2018-09-01T02:23:13.532Z,48.79
2018-09-01T02:24:13.567Z,48.71
2018-09-01T02:25:13.850Z,48.81
2018-09-01T02:26:13.583Z,48.71
2018-09-01T02:27:13.609Z,48.71
2018-09-01T02:28:13.694Z,48.81
2018-09-01T02:29:13.724Z,48.81
2018-09-01T02:30:13.707Z,48.81
2018-09-01T02:31:14.048Z,48.69
2018-09-01T02:32:13.769Z,48.69
2018-09-01T02:33:13.806Z,48.81
2018-09-01T02:34:13.838Z,48.49
2018-09-01T02:35:13.870Z,48.59
2018-09-01T02:36:13.949Z,48.59
2018-09-01T02:37:13.985Z,48.79
2018-09-01T02:38:13.981Z,48.59
2018-09-01T02:40:14.097Z,48.79
2018-09-01T02:41:14.079Z,48.88
2018-09-01T02:42:14.151Z,48.79
2018-09-01T02:43:14.471Z,48.59
2018-09-01T02:44:14.210Z,48.79
2018-09-01T02:45:14.191Z,48.88
2018-09-01T02:46:14.235Z,48.79
2018-09-01T02:47:14.300Z,48.79
2018-09-01T02:48:14.286Z,48.79
2018-09-01T02:49:14.368Z,48.59
2018-09-01T02:50:14.655Z,48.69
2018-09-01T02:51:14.428Z,48.79
2018-09-01T02:52:14.468Z,48.49
2018-09-01T02:53:14.547Z,48.69
2018-09-01T02:54:14.532Z,48.79
2018-09-01T02:55:14.567Z,48.69
2018-09-01T02:56:14.589Z,48.59
2018-09-01T02:57:14.874Z,48.59
2018-09-01T02:58:14.661Z,48.59
2018-09-01T02:59:14.695Z,48.79
2018-09-01T03:00:14.665Z,48.88
2018-09-01T03:01:14.699Z,48.79
2018-09-01T03:02:14.730Z,48.49
2018-09-01T03:03:14.819Z,48.49
2018-09-01T03:04:15.101Z,48.69
2018-09-01T03:05:14.828Z,48.49
2018-09-01T03:06:14.856Z,48.49
2018-09-01T03:07:14.943Z,48.49
2018-09-01T03:08:14.923Z,48.79
2018-09-01T03:09:14.964Z,48.79
2018-09-01T03:11:15.033Z,48.59
2018-09-01T03:12:15.359Z,48.69
2018-09-01T03:13:15.131Z,48.69
2018-09-01T03:14:15.153Z,48.69
2018-09-01T03:15:15.149Z,48.88
2018-09-01T03:16:15.232Z,48.88
2018-09-01T03:17:15.214Z,48.79
2018-09-01T03:19:15.324Z,48.88
2018-09-01T03:20:15.610Z,48.97
2018-09-01T03:21:15.358Z,48.97
2018-09-01T03:22:15.381Z,49.17
2018-09-01T03:23:15.461Z,48.69
2018-09-01T03:24:15.438Z,48.79
2018-09-01T03:25:15.465Z,48.97
2018-09-01T03:26:15.803Z,48.79
2018-09-01T03:27:15.535Z,48.97
2018-09-01T03:28:15.615Z,48.88
2018-09-01T03:29:15.593Z,48.88
2018-09-01T03:30:15.682Z,48.97
2018-09-01T03:31:15.711Z,48.79
2018-09-01T03:34:16.111Z,48.97
2018-09-01T03:35:15.791Z,48.88
2018-09-01T03:37:15.954Z,48.88
2018-09-01T03:38:15.931Z,48.88
2018-09-01T03:39:15.968Z,49.05
2018-09-01T03:40:16.002Z,48.97
2018-09-01T03:41:16.276Z,49.05
2018-09-01T03:42:16.013Z,48.97
2018-09-01T03:43:16.124Z,49.05
2018-09-01T03:44:16.292Z,49.07
2018-09-01T03:45:16.108Z,49.05
2018-09-01T03:46:16.199Z,49.07
2018-09-01T03:47:16.179Z,49.07
2018-09-01T03:48:16.250Z,49.17
2018-09-01T03:49:16.284Z,49.17
2018-09-01T03:50:16.319Z,49.15
2018-09-01T03:51:16.300Z,49.17
2018-09-01T03:52:16.331Z,49.17
2018-09-01T03:53:16.409Z,48.88
2018-09-01T03:54:16.694Z,49.37
2018-09-01T03:55:16.427Z,48.88
2018-09-01T03:56:16.528Z,49.15
2018-09-01T03:57:16.485Z,49.07
2018-09-01T03:58:16.584Z,49.34
2018-09-01T03:59:16.603Z,48.88
2018-09-01T04:00:16.695Z,49.07
2018-09-01T04:01:16.626Z,48.95
2018-09-01T04:02:16.663Z,48.76
2018-09-01T04:04:16.708Z,49.05
2018-09-01T04:05:16.794Z,49.05
2018-09-01T04:06:16.779Z,48.79
2018-09-01T04:07:17.116Z,48.86
2018-09-01T04:08:16.885Z,48.95
2018-09-01T04:09:16.927Z,49.05
2018-09-01T04:10:16.904Z,49.15
2018-09-01T04:11:16.929Z,49.15
2018-09-01T04:12:16.967Z,49.15
2018-09-01T04:13:17.007Z,49.73
2018-09-01T04:14:17.341Z,49.73
2018-09-01T04:15:17.058Z,49.82
2018-09-01T04:16:17.148Z,49.73
2018-09-01T04:17:17.127Z,49.73
2018-09-01T04:18:17.208Z,49.82
2018-09-01T04:19:17.195Z,49.82
2018-09-01T04:20:17.569Z,49.73
2018-09-01T04:21:17.252Z,49.73
2018-09-01T04:22:17.329Z,49.54
2018-09-01T04:23:17.365Z,49.54
2018-09-01T04:24:17.344Z,49.73
2018-09-01T04:25:17.406Z,49.44
2018-09-01T04:26:17.712Z,49.54
2018-09-01T04:27:17.443Z,49.54
2018-09-01T04:28:17.521Z,49.44
2018-09-01T04:29:17.561Z,49.44
2018-09-01T04:30:17.593Z,49.44
2018-09-01T04:31:17.577Z,49.44
2018-09-01T04:32:17.607Z,49.54
2018-09-01T04:33:17.631Z,49.54
2018-09-01T04:34:17.717Z,49.63
2018-09-01T04:35:17.703Z,49.63
2018-09-01T04:36:17.780Z,49.15
2018-09-01T04:37:17.807Z,49.63
2018-09-01T04:38:18.189Z,49.73
2018-09-01T04:39:17.874Z,49.63
2018-09-01T04:40:17.859Z,49.63
2018-09-01T04:41:17.891Z,49.44
2018-09-01T04:42:17.972Z,49.54
2018-09-01T04:43:17.955Z,49.63
2018-09-01T04:44:18.037Z,49.63
2018-09-01T04:46:18.414Z,49.44
2018-09-01T04:47:18.234Z,49.63
2018-09-01T04:48:18.169Z,49.54
2018-09-01T04:49:18.200Z,49.54
2018-09-01T04:50:18.173Z,49.15
2018-09-01T04:51:18.207Z,49.54
2018-09-01T04:52:18.281Z,49.15
2018-09-01T04:53:18.315Z,49.34
2018-09-01T04:54:18.296Z,49.15
2018-09-01T04:55:18.330Z,49.15
2018-09-01T04:56:18.408Z,49.15
2018-09-01T04:57:18.394Z,49.24
2018-09-01T04:58:18.478Z,49.15
2018-09-01T04:59:18.772Z,49.24
2018-09-01T05:00:18.502Z,49.24
2018-09-01T05:01:18.564Z,49.24
2018-09-01T05:02:18.564Z,49.24
2018-09-01T05:03:18.644Z,49.54
2018-09-01T05:04:18.665Z,49.24
2018-09-01T05:05:18.650Z,49.44
2018-09-01T05:06:18.977Z,49.34
2018-09-01T05:07:18.708Z,49.24
2018-09-01T05:08:18.793Z,49.24
2018-09-01T05:09:18.821Z,49.24
2018-09-01T05:10:18.815Z,49.15
2018-09-01T05:11:18.836Z,49.24
2018-09-01T05:12:18.928Z,49.24
2018-09-01T05:13:19.215Z,49.24
2018-09-01T05:14:18.982Z,49.15
2018-09-01T05:15:18.980Z,49.15
2018-09-01T05:16:19.058Z,49.34
2018-09-01T05:17:19.028Z,49.24
2018-09-01T05:18:19.059Z,49.24
2018-09-01T05:19:19.145Z,49.15
2018-09-01T05:20:19.420Z,49.15
2018-09-01T05:21:19.152Z,49.15
2018-09-01T05:22:19.186Z,49.05
2018-09-01T05:23:19.221Z,49.15
2018-09-01T05:24:19.300Z,49.54
2018-09-01T05:25:19.335Z,49.15
2018-09-01T05:26:19.357Z,49.15
2018-09-01T05:27:19.698Z,49.54
2018-09-01T05:28:19.469Z,49.34
2018-09-01T05:29:19.461Z,49.34
2018-09-01T05:30:19.498Z,49.15
2018-09-01T05:31:19.525Z,49.44
2018-09-01T05:32:19.555Z,49.54
2018-09-01T05:33:19.584Z,49.54
2018-09-01T05:34:20.347Z,49.54
2018-09-01T05:35:19.637Z,49.54
2018-09-01T05:36:19.692Z,49.54
2018-09-01T05:37:19.665Z,49.63
2018-09-01T05:38:19.748Z,49.54
2018-09-01T05:39:19.728Z,49.34
2018-09-01T05:40:20.056Z,49.63
2018-09-01T05:41:19.788Z,49.54
2018-09-01T05:42:19.866Z,49.54
2018-09-01T05:43:19.947Z,49.54
2018-09-01T05:44:19.936Z,49.44
2018-09-01T05:45:19.967Z,49.44
2018-09-01T05:46:20.250Z,49.63
2018-09-01T05:47:19.981Z,49.73
2018-09-01T05:48:20.060Z,49.73
2018-09-01T05:49:20.091Z,49.73
2018-09-01T05:50:20.075Z,49.73
2018-09-01T05:51:20.100Z,49.82
2018-09-01T05:52:20.441Z,49.82
2018-09-01T05:53:20.164Z,49.24
2018-09-01T05:54:20.250Z,49.24
2018-09-01T05:55:20.282Z,49.05
2018-09-01T05:56:20.320Z,49.05
2018-09-01T05:57:20.344Z,49.24
2018-09-01T05:58:20.325Z,48.86
2018-09-01T06:00:20.693Z,49.05
2018-09-01T06:01:20.479Z,48.86
2018-09-01T06:02:20.459Z,49.05
2018-09-01T06:03:20.484Z,49.05
2018-09-01T06:04:20.676Z,49.05
2018-09-01T06:05:20.599Z,49.15
2018-09-01T06:06:20.914Z,49.15
2018-09-01T06:07:20.614Z,49.05
2018-09-01T06:08:20.695Z,48.95
2018-09-01T06:09:20.724Z,48.95
2018-09-01T06:10:20.759Z,48.95
2018-09-01T06:11:20.754Z,48.86
2018-09-01T06:12:20.823Z,48.76
2018-09-01T06:13:20.885Z,48.95
2018-09-01T06:14:20.839Z,49.05
2018-09-01T06:15:20.931Z,48.76
2018-09-01T06:16:20.949Z,48.95
2018-09-01T06:17:20.959Z,48.76
2018-09-01T06:18:20.981Z,48.79
2018-09-01T06:19:21.529Z,48.79
2018-09-01T06:20:21.078Z,48.79
2018-09-01T06:21:21.112Z,48.69
2018-09-01T06:22:21.093Z,48.79
2018-09-01T06:23:21.116Z,48.69
2018-09-01T06:24:21.164Z,48.59
2018-09-01T06:25:21.232Z,48.79
2018-09-01T06:26:21.530Z,48.59
2018-09-01T06:27:21.256Z,48.76
2018-09-01T06:28:21.337Z,48.69
2018-09-01T06:29:21.309Z,48.76
2018-09-01T06:30:21.402Z,48.79
2018-09-01T06:31:21.371Z,48.79
2018-09-01T06:32:21.406Z,48.69
2018-09-01T06:33:21.735Z,48.59
2018-09-01T06:34:21.565Z,48.69
2018-09-01T06:35:21.693Z,48.79
2018-09-01T06:36:21.583Z,48.79
2018-09-01T06:37:21.568Z,48.69
2018-09-01T06:38:21.661Z,48.69
2018-09-01T06:39:21.676Z,48.69
2018-09-01T06:40:21.961Z,48.69
2018-09-01T06:41:21.748Z,48.59
2018-09-01T06:42:21.737Z,48.79
2018-09-01T06:43:21.801Z,48.88
2018-09-01T06:44:22.092Z,48.59
2018-09-01T06:45:21.885Z,48.39
2018-09-01T06:46:21.851Z,48.88
2018-09-01T06:47:22.180Z,48.49
2018-09-01T06:48:21.914Z,48.69
2018-09-01T06:49:22.010Z,48.79
2018-09-01T06:50:21.978Z,48.69
2018-09-01T06:51:22.066Z,48.59
2018-09-01T06:52:22.039Z,48.69
2018-09-01T06:53:22.071Z,48.49
2018-09-01T06:54:22.404Z,48.69
2018-09-01T06:55:22.206Z,48.79
2018-09-01T06:56:22.220Z,48.79
2018-09-01T06:57:22.263Z,48.11
2018-09-01T06:58:22.284Z,48.30
2018-09-01T06:59:22.315Z,48.11
2018-09-01T07:00:22.601Z,48.11
2018-09-01T07:01:22.330Z,48.11
2018-09-01T07:02:22.416Z,48.11
2018-09-01T07:03:22.412Z,48.20
2018-09-01T07:04:22.487Z,48.20
2018-09-01T07:05:22.457Z,48.11
2018-09-01T07:06:22.787Z,47.81
2018-09-01T07:07:22.524Z,47.74
2018-09-01T07:08:22.599Z,47.94
2018-09-01T07:09:22.685Z,47.91
2018-09-01T07:10:22.711Z,48.22
2018-09-01T07:11:22.703Z,47.81
2018-09-01T07:12:23.036Z,47.74
2018-09-01T07:13:22.761Z,47.74
2018-09-01T07:15:22.825Z,47.91
2018-09-01T07:16:22.809Z,48.13
2018-09-01T07:17:22.839Z,48.03
2018-09-01T07:18:22.868Z,48.03
2018-09-01T07:20:23.290Z,48.13
2018-09-01T07:21:23.063Z,48.13
2018-09-01T07:22:23.010Z,48.22
2018-09-01T07:23:23.084Z,48.13
2018-09-01T07:24:23.114Z,47.84
2018-09-01T07:25:23.097Z,48.03
2018-09-01T07:26:23.435Z,47.84
2018-09-01T07:28:23.244Z,47.55
2018-09-01T07:29:23.277Z,47.64
2018-09-01T07:30:23.282Z,47.64
2018-09-01T07:31:23.836Z,47.74
2018-09-01T07:32:23.370Z,47.64
2018-09-01T07:33:23.703Z,47.74
2018-09-01T07:34:23.388Z,47.64
2018-09-01T07:35:23.470Z,47.64
2018-09-01T07:36:23.512Z,47.74
2018-09-01T07:37:23.483Z,47.84
2018-09-01T07:38:23.511Z,47.84
2018-09-01T07:39:23.597Z,47.94
2018-09-01T07:40:23.878Z,47.64
2018-09-01T07:41:23.619Z,47.55
2018-09-01T07:42:23.641Z,47.36
2018-09-01T07:43:23.668Z,47.16
2018-09-01T07:44:23.758Z,47.26
2018-09-01T07:45:23.798Z,47.94
2018-09-01T07:46:23.824Z,47.36
2018-09-01T07:47:24.105Z,47.64
2018-09-01T07:48:23.837Z,47.55
2018-09-01T07:49:23.924Z,47.36
2018-09-01T07:50:23.900Z,47.36
2018-09-01T07:51:23.977Z,47.26
2018-09-01T07:52:24.015Z,47.36
2018-09-01T07:53:24.008Z,47.06
2018-09-01T07:54:24.328Z,47.36
2018-09-01T07:55:24.134Z,47.06
2018-09-01T07:56:24.212Z,46.97
2018-09-01T07:57:24.170Z,47.06
2018-09-01T07:58:24.219Z,47.06
2018-09-01T07:59:24.206Z,47.67
2018-09-01T08:00:24.275Z,47.06
2018-09-01T08:01:24.559Z,46.87
2018-09-01T08:02:24.341Z,47.36
2018-09-01T08:03:24.319Z,47.16
2018-09-01T08:04:24.399Z,47.19
2018-09-01T08:05:24.429Z,47.06
2018-09-01T08:06:24.410Z,47.06
2018-09-01T08:07:24.447Z,47.09
2018-09-01T08:08:24.846Z,47.09
2018-09-01T08:09:24.515Z,47.16
2018-09-01T08:10:24.606Z,47.19
2018-09-01T08:11:24.580Z,47.26
2018-09-01T08:12:24.611Z,47.28
2018-09-01T08:13:24.686Z,47.38
2018-09-01T08:14:24.711Z,47.38
2018-09-01T08:15:24.755Z,47.19
2018-09-01T08:16:24.783Z,46.89
2018-09-01T08:17:24.772Z,46.70
2018-09-01T08:18:24.849Z,46.89
2018-09-01T08:19:24.839Z,46.99
2018-09-01T08:20:24.924Z,46.80
2018-09-01T08:22:25.236Z,47.09
2018-09-01T08:23:24.967Z,47.09
2018-09-01T08:24:25.047Z,47.09
2018-09-01T08:25:25.026Z,46.99
2018-09-01T08:26:25.110Z,47.09
2018-09-01T08:27:25.146Z,46.80
2018-09-01T08:28:25.178Z,46.60
2018-09-01T08:29:25.164Z,46.80
2018-09-01T08:30:25.239Z,46.70
2018-09-01T08:31:25.267Z,46.80
2018-09-01T08:32:25.300Z,46.51
2018-09-01T08:33:25.284Z,46.99
2018-09-01T08:34:25.364Z,46.70
2018-09-01T08:35:25.654Z,46.70
2018-09-01T08:36:25.430Z,46.80
2018-09-01T08:37:25.473Z,46.60
2018-09-01T08:38:25.450Z,46.60
2018-09-01T08:39:25.493Z,46.60
2018-09-01T08:40:25.566Z,46.60
2018-09-01T08:41:25.894Z,46.60
2018-09-01T08:42:25.627Z,46.41
2018-09-01T08:43:25.613Z,46.70
2018-09-01T08:44:25.699Z,46.60
2018-09-01T08:45:25.809Z,46.41
2018-09-01T08:46:25.758Z,46.22
2018-09-01T08:47:26.099Z,46.31
2018-09-01T08:48:25.831Z,46.31
2018-09-01T08:49:25.902Z,46.22
2018-09-01T08:50:25.904Z,46.51
2018-09-01T08:51:25.878Z,46.31
2018-09-01T08:52:25.955Z,46.31
2018-09-01T08:53:26.387Z,46.22
2018-09-01T08:54:25.969Z,46.22
2018-09-01T08:55:26.021Z,46.51
2018-09-01T08:56:26.135Z,46.51
2018-09-01T08:57:26.115Z,46.22
2018-09-01T08:58:26.178Z,46.24
2018-09-01T08:59:26.182Z,46.31
2018-09-01T09:00:26.471Z,46.22
2018-09-01T09:01:26.199Z,46.31
2018-09-01T09:02:26.279Z,46.41
2018-09-01T09:03:26.317Z,46.31
2018-09-01T09:04:26.353Z,46.31
2018-09-01T09:05:26.351Z,46.41
2018-09-01T09:06:26.406Z,46.53
2018-09-01T09:07:26.761Z,46.51
2018-09-01T09:08:26.494Z,46.31
2018-09-01T09:09:26.462Z,46.41
2018-09-01T09:10:26.543Z,46.43
2018-09-01T09:11:26.611Z,46.33
2018-09-01T09:12:26.551Z,46.14
2018-09-01T09:13:26.638Z,46.43
2018-09-01T09:14:26.923Z,46.33
2018-09-01T09:15:26.651Z,46.22
2018-09-01T09:16:26.734Z,46.33
2018-09-01T09:17:26.778Z,46.04
2018-09-01T09:18:26.797Z,46.22
2018-09-01T09:19:26.785Z,45.95
2018-09-01T09:20:26.875Z,46.12
2018-09-01T09:21:26.895Z,46.04
2018-09-01T09:22:26.915Z,46.12
2018-09-01T09:23:26.974Z,45.92
2018-09-01T09:24:27.004Z,46.14
2018-09-01T09:25:27.038Z,45.95
2018-09-01T09:26:27.057Z,46.04
2018-09-01T09:27:27.046Z,46.14
2018-09-01T09:28:27.134Z,46.04
2018-09-01T09:29:27.114Z,46.04
2018-09-01T09:30:27.187Z,46.04
2018-09-01T09:31:27.197Z,46.04
2018-09-01T09:32:27.271Z,46.04
2018-09-01T09:33:27.299Z,46.14
2018-09-01T09:34:27.316Z,46.14
2018-09-01T09:35:27.355Z,46.04
2018-09-01T09:36:27.388Z,46.14
2018-09-01T09:37:27.420Z,46.14
2018-09-01T09:38:27.406Z,46.04
2018-09-01T09:39:27.494Z,46.14
2018-09-01T09:40:27.527Z,46.14
2018-09-01T09:41:27.550Z,46.14
2018-09-01T09:42:27.544Z,45.95
2018-09-01T09:43:27.577Z,46.14
2018-09-01T09:44:27.599Z,46.04
2018-09-01T09:45:27.979Z,45.95
2018-09-01T09:46:27.662Z,46.14
2018-09-01T09:47:27.693Z,46.14
2018-09-01T09:48:27.796Z,45.95
2018-09-01T09:49:27.819Z,45.95
2018-09-01T09:50:27.856Z,46.04
2018-09-01T09:51:28.045Z,46.04
2018-09-01T09:52:28.157Z,46.04
2018-09-01T09:53:27.889Z,45.95
2018-09-01T09:54:27.926Z,46.04
2018-09-01T09:55:28.006Z,46.04
2018-09-01T09:56:28.040Z,46.04
2018-09-01T09:57:28.025Z,46.14
2018-09-01T09:58:28.110Z,45.85
2018-09-01T09:59:28.086Z,46.04
2018-09-01T10:00:28.174Z,46.04
2018-09-01T10:01:28.208Z,46.04
2018-09-01T10:02:28.277Z,45.85
2018-09-01T10:03:28.259Z,45.65
2018-09-01T10:04:28.261Z,45.95
2018-09-01T10:05:28.395Z,46.04
2018-09-01T10:06:28.380Z,46.04
2018-09-01T10:07:28.357Z,45.85
2018-09-01T10:08:28.446Z,45.95
2018-09-01T10:09:28.489Z,45.75
2018-09-01T10:10:28.453Z,45.65
2018-09-01T10:11:28.539Z,45.85
2018-09-01T10:12:28.538Z,45.85
2018-09-01T10:13:28.555Z,45.75
2018-09-01T10:14:28.580Z,45.75
2018-09-01T10:15:28.662Z,45.95
2018-09-01T10:16:28.703Z,45.95
2018-09-01T10:18:28.716Z,45.75
2018-09-01T10:19:28.749Z,46.04
2018-09-01T10:20:28.980Z,45.95
2018-09-01T10:21:28.865Z,45.95
2018-09-01T10:22:28.852Z,45.75
2018-09-01T10:23:28.943Z,45.95
2018-09-01T10:24:28.913Z,46.04
2018-09-01T10:25:28.945Z,46.14
2018-09-01T10:26:29.040Z,46.04
2018-09-01T10:27:29.025Z,46.14
2018-09-01T10:28:29.104Z,45.95
2018-09-01T10:29:29.436Z,45.95
2018-09-01T10:30:29.115Z,45.75
2018-09-01T10:31:29.197Z,45.75
2018-09-01T10:32:29.234Z,45.85
2018-09-01T10:33:29.264Z,45.95
2018-09-01T10:34:29.249Z,45.65
2018-09-01T10:35:29.336Z,45.85
2018-09-01T10:36:29.362Z,45.75
2018-09-01T10:37:29.406Z,45.85
2018-09-01T10:38:29.411Z,45.56
2018-09-01T10:39:29.413Z,45.56
2018-09-01T10:40:29.509Z,45.37
2018-09-01T10:41:29.776Z,45.37
2018-09-01T10:42:29.561Z,45.27
2018-09-01T10:43:29.614Z,45.27
2018-09-01T10:44:29.628Z,45.37
2018-09-01T10:45:29.656Z,45.27
2018-09-01T10:46:29.646Z,45.17
2018-09-01T10:47:29.683Z,45.56
2018-09-01T10:48:29.857Z,45.56
2018-09-01T10:49:29.740Z,45.48
2018-09-01T10:50:29.928Z,45.07
2018-09-01T10:51:29.810Z,45.07
2018-09-01T10:52:29.840Z,45.65
2018-09-01T10:53:29.876Z,45.27
2018-09-01T10:54:29.965Z,44.90
2018-09-01T10:55:29.958Z,45.10
2018-09-01T10:56:30.025Z,45.20
2018-09-01T10:57:30.013Z,45.10
2018-09-01T10:58:30.104Z,45.20
2018-09-01T10:59:30.404Z,45.10
2018-09-01T11:00:30.172Z,45.29
2018-09-01T11:01:30.212Z,44.90
2018-09-01T11:02:30.174Z,44.90
2018-09-01T11:03:30.305Z,44.81
2018-09-01T11:04:30.308Z,44.90
2018-09-01T11:05:30.299Z,44.51
2018-09-01T11:06:30.364Z,44.90
2018-09-01T11:07:30.345Z,44.90
2018-09-01T11:08:30.442Z,44.71
2018-09-01T11:09:30.482Z,44.90
2018-09-01T11:10:30.492Z,44.90
2018-09-01T11:11:30.542Z,44.61
2018-09-01T11:12:30.866Z,45.00
2018-09-01T11:13:30.572Z,44.51
2018-09-01T11:14:30.588Z,44.81
2018-09-01T11:15:30.625Z,44.51
2018-09-01T11:16:30.708Z,44.81
2018-09-01T11:17:30.752Z,44.71
2018-09-01T11:18:30.725Z,44.61
2018-09-01T11:19:30.799Z,44.51
2018-09-01T11:20:30.861Z,44.42
2018-09-01T11:21:30.972Z,44.32
2018-09-01T11:23:31.127Z,44.51
2018-09-01T11:24:31.572Z,44.32
2018-09-01T11:25:31.708Z,44.23
2018-09-01T11:27:31.208Z,44.71
2018-09-01T11:28:31.144Z,44.61
2018-09-01T11:29:31.141Z,44.32
2018-09-01T11:30:31.169Z,44.13
2018-09-01T11:31:31.177Z,43.93
2018-09-01T11:32:31.246Z,44.42
2018-09-01T11:33:31.276Z,43.84
2018-09-01T11:34:31.324Z,43.84
2018-09-01T11:35:31.341Z,43.64
2018-09-01T11:37:31.438Z,43.74
2018-09-01T11:38:31.478Z,43.54
2018-09-01T11:39:31.484Z,43.57
2018-09-01T11:40:31.527Z,43.84
2018-09-01T11:41:31.583Z,43.74
2018-09-01T11:42:31.659Z,43.74
2018-09-01T11:43:31.578Z,43.45
2018-09-01T11:44:31.967Z,43.26
2018-09-01T11:45:31.723Z,43.37
2018-09-01T11:46:31.919Z,43.06
2018-09-01T11:47:31.916Z,43.35
2018-09-01T11:48:32.059Z,43.16
2018-09-01T11:49:32.250Z,43.54
2018-09-01T11:50:31.823Z,43.35
2018-09-01T11:51:31.828Z,43.37
2018-09-01T11:52:31.961Z,43.26
2018-09-01T11:54:32.062Z,43.35
2018-09-01T11:55:32.020Z,43.57
2018-09-01T11:56:32.068Z,43.47
2018-09-01T11:57:32.033Z,43.47
2018-09-01T11:58:32.126Z,43.66
2018-09-01T11:59:32.107Z,43.66
2018-09-01T12:00:32.204Z,43.18
2018-09-01T12:01:32.224Z,43.18
2018-09-01T12:02:32.211Z,42.79
2018-09-01T12:03:32.232Z,42.69
2018-09-01T12:04:32.319Z,43.08
2018-09-01T12:05:32.317Z,42.60
2018-09-01T12:06:32.401Z,43.08
2018-09-01T12:07:32.426Z,42.99
2018-09-01T12:08:32.745Z,42.99
2018-09-01T12:09:32.612Z,42.50
2018-09-01T12:10:32.525Z,42.60
2018-09-01T12:11:32.606Z,42.40
2018-09-01T12:12:32.591Z,42.79
2018-09-01T12:13:32.621Z,42.60
2018-09-01T12:14:32.612Z,42.99
2018-09-01T12:15:32.949Z,42.99
2018-09-01T12:17:32.767Z,42.89
2018-09-01T12:18:32.772Z,42.79
2018-09-01T12:19:32.774Z,42.79
2018-09-01T12:20:32.867Z,42.60
2018-09-01T12:21:32.884Z,42.69
2018-09-01T12:22:33.266Z,42.50
2018-09-01T12:23:32.923Z,42.30
2018-09-01T12:24:33.020Z,42.40
2018-09-01T12:25:33.064Z,42.40
2018-09-01T12:27:33.087Z,42.02
2018-09-01T12:28:33.131Z,42.02
2018-09-01T12:29:33.470Z,41.63
2018-09-01T12:30:33.152Z,41.82
2018-09-01T12:31:33.355Z,41.63
2018-09-01T12:32:33.285Z,41.63
2018-09-01T12:33:33.260Z,41.63
2018-09-01T12:34:33.356Z,41.33
2018-09-01T12:35:33.388Z,41.72
2018-09-01T12:36:33.405Z,41.92
2018-09-01T12:37:33.395Z,41.92
2018-09-01T12:38:33.487Z,42.03
2018-09-01T12:40:33.537Z,42.02
2018-09-01T12:41:33.583Z,42.50
2018-09-01T12:42:33.615Z,42.03
2018-09-01T12:43:33.644Z,42.21
2018-09-01T12:44:33.668Z,42.43
2018-09-01T12:45:33.730Z,42.23
2018-09-01T12:46:33.751Z,41.94
2018-09-01T12:47:33.774Z,41.74
2018-09-01T12:48:34.111Z,41.33
2018-09-01T12:49:33.884Z,41.64
2018-09-01T12:50:33.868Z,41.55
2018-09-01T12:51:33.990Z,41.36
2018-09-01T12:52:33.972Z,41.36
2018-09-01T12:53:33.989Z,41.64
2018-09-01T12:54:34.268Z,41.45
2018-09-01T12:55:34.116Z,41.55
2018-09-01T12:56:34.082Z,41.74
2018-09-01T12:57:34.152Z,41.64
2018-09-01T12:58:34.162Z,41.64
2018-09-01T12:59:34.204Z,41.55
2018-09-01T13:00:34.274Z,41.55
2018-09-01T13:01:34.258Z,41.55
2018-09-01T13:02:34.297Z,41.55
2018-09-01T13:03:34.338Z,41.55
2018-09-01T13:04:34.354Z,41.64
2018-09-01T13:05:34.451Z,41.64
2018-09-01T13:06:34.385Z,41.36
2018-09-01T13:07:34.458Z,41.55
2018-09-01T13:08:34.500Z,41.16
2018-09-01T13:09:34.535Z,41.45
2018-09-01T13:10:34.586Z,41.45
2018-09-01T13:11:34.622Z,41.06
2018-09-01T13:12:34.641Z,41.36
2018-09-01T13:13:34.976Z,41.45
2018-09-01T13:14:34.758Z,41.36
2018-09-01T13:15:34.740Z,41.26
2018-09-01T13:16:34.859Z,41.08